Portada
METAR-TAF:

METAR-TAF

Aeroports :

Aeroport Internacional de Xangai-Pudong

Xangai-Pudong, Xina

latitud: 31-07N, longitud: 121-46E, altitud: 4 m

Observació

L'informe es va fer fa 39 minuts, a les 01:00 UTC
Vent 4 kt del Nord/Nord-Oest, variant entre Oest i Nord
Temperatura 23°C
Humitat 69%
Pressió 1012 hPa
Visibilitat 10 km o més
sense núvols per sota de 1500 mi sense presència de cumulonimbus.

METAR: ZSPD 270100Z 33002MPS 270V010 CAVOK 23/17 Q1012 NOSIG

Hora: 09:39 (01:39 UTC)

Pronòstic

L'informe es va fer fa 4 hores i 36 minuts, a les 21:03 UTC
Pronòstic vàlid del 27 a les 00 UTC al 27 a les 24 UTC
Vent 6 kt del Est/Nord-Est
Visibilitat: 5000 m
Núvols disperses a una alçada de 2000 ft
boirina
Evolucionant progressivament
l' 27 a les 06 UTC al 27 a les 07 UTC
Vent 8 kt del Sud/Sud-Est

TAF: ZSPD 262103Z 2700/2724 07003MPS 5000 BR SCT020 TX28/2706Z TN18/2720Z BECMG 2706/2707 15004MPS

Observacions i pronòstics meteorològics de més de 4000 aeroports (METAR i TAF).

Les estacions disponibles són els punts grocs i vermells al mapa.

Posi el ratolí al punt desitjat per veure el nom de l'estació.

Feu clic per veure les observacions i els pronòstics meteorològics.

Per canviar el mapa: feu clic els botons verds amb una creu de color negre per apropar; al botó verd amb un guió per allunyar la imatge; o en les fletxes verdes per a mapes adjacents.


METAR-TAF: